createdAt,value
2019-02-19T00:00:00.367Z,4.23
2019-02-19T00:06:26.188Z,4.37
2019-02-19T00:15:57.061Z,4.87
2019-02-19T00:22:20.862Z,3.53
2019-02-19T00:28:59.811Z,3.40
2019-02-19T00:35:23.617Z,3.80
2019-02-19T00:41:51.227Z,4.10
2019-02-19T00:48:30.402Z,3.70
2019-02-19T00:54:58.910Z,4.10
2019-02-19T01:01:25.993Z,4.70
2019-02-19T01:07:16.198Z,4.00
2019-02-19T01:17:31.639Z,4.90
2019-02-19T01:24:12.611Z,4.13
2019-02-19T01:30:41.464Z,4.40
2019-02-19T01:37:09.301Z,4.17
2019-02-19T01:43:46.233Z,3.60
2019-02-19T01:50:13.850Z,4.30
2019-02-19T01:56:40.901Z,5.03
2019-02-19T02:03:06.718Z,4.00
2019-02-19T02:09:08.880Z,3.63
2019-02-19T02:19:13.049Z,4.60
2019-02-19T02:25:42.144Z,4.10
2019-02-19T02:32:09.674Z,4.43
2019-02-19T02:38:52.969Z,4.83
2019-02-19T02:45:16.516Z,5.00
2019-02-19T02:51:42.369Z,4.30
2019-02-19T02:58:15.185Z,4.60
2019-02-19T03:04:52.419Z,4.63
2019-02-19T03:10:43.891Z,5.40
2019-02-19T03:20:48.884Z,4.13
2019-02-19T03:26:39.353Z,4.97
2019-02-19T03:32:54.758Z,4.70
2019-02-19T03:39:36.043Z,5.37
2019-02-19T03:46:01.863Z,4.90
2019-02-19T03:52:27.465Z,4.70
2019-02-19T03:59:06.417Z,4.73
2019-02-19T04:05:33.460Z,4.63
2019-02-19T04:11:59.283Z,4.67
2019-02-19T04:22:12.120Z,5.17
2019-02-19T04:28:37.970Z,5.73
2019-02-19T04:35:14.871Z,5.60
2019-02-19T04:41:40.722Z,4.90
2019-02-19T04:48:04.537Z,5.70
2019-02-19T04:54:44.684Z,5.60
2019-02-19T05:01:10.150Z,5.53
2019-02-19T05:07:40.359Z,5.90
2019-02-19T05:14:05.947Z,5.73
2019-02-19T05:24:07.129Z,5.80
2019-02-19T05:30:44.062Z,7.77
2019-02-19T05:37:09.885Z,6.30
2019-02-19T05:43:41.762Z,6.83
2019-02-19T05:50:19.703Z,6.97
2019-02-19T05:56:49.273Z,7.10
2019-02-19T06:03:15.382Z,5.90
2019-02-19T06:09:17.969Z,6.90
2019-02-19T06:15:54.895Z,8.70
2019-02-19T06:26:07.987Z,9.40
2019-02-19T06:32:35.606Z,8.97
2019-02-19T06:39:02.642Z,8.40
2019-02-19T06:49:28.843Z,9.57
2019-02-19T06:56:05.771Z,8.50
2019-02-19T07:02:54.821Z,8.87
2019-02-19T07:08:44.066Z,9.07
2019-02-19T07:15:20.979Z,8.13
2019-02-19T07:21:44.777Z,7.53
2019-02-19T07:27:58.711Z,7.90
2019-02-19T07:34:26.551Z,9.37
2019-02-19T07:41:05.502Z,9.70
2019-02-19T07:47:31.040Z,9.37
2019-02-19T07:53:56.904Z,8.23
2019-02-19T08:00:36.094Z,10.13
2019-02-19T08:06:59.649Z,11.00
2019-02-19T08:13:25.502Z,10.07
2019-02-19T08:19:52.544Z,8.80
2019-02-19T08:30:01.262Z,8.87
2019-02-19T08:36:40.523Z,8.10
2019-02-19T08:43:06.343Z,8.90
2019-02-19T08:49:33.961Z,9.50
2019-02-19T08:56:12.916Z,8.70
2019-02-19T09:02:41.635Z,9.17
2019-02-19T09:08:45.367Z,9.13
2019-02-19T09:15:12.417Z,10.13
2019-02-19T09:21:53.054Z,9.40
2019-02-19T09:31:56.359Z,9.73
2019-02-19T09:38:25.939Z,9.50
2019-02-19T09:44:40.718Z,10.33
2019-02-19T09:51:17.627Z,11.20
2019-02-19T09:57:43.479Z,9.97
2019-02-19T10:04:10.511Z,10.07
2019-02-19T10:10:38.041Z,9.80
2019-02-19T10:17:17.000Z,9.20
2019-02-19T10:23:43.121Z,10.07
2019-02-19T10:33:46.091Z,9.23
2019-02-19T10:40:15.761Z,8.87
2019-02-19T10:46:18.542Z,8.57
2019-02-19T10:52:46.136Z,8.67
2019-02-19T10:59:11.983Z,7.80
2019-02-19T11:05:40.703Z,7.80
2019-02-19T11:12:19.666Z,7.43
2019-02-19T11:18:45.827Z,7.30
2019-02-19T11:25:13.660Z,6.63
2019-02-19T11:34:41.291Z,6.23
2019-02-19T11:41:07.103Z,4.60
2019-02-19T11:47:46.749Z,3.53
2019-02-19T11:54:10.859Z,4.33
2019-02-19T12:00:42.742Z,5.10
2019-02-19T12:07:22.699Z,2.93
2019-02-19T12:13:48.524Z,2.07
2019-02-19T12:20:16.360Z,1.80
2019-02-19T12:26:18.951Z,2.03
2019-02-19T12:36:31.751Z,1.50
2019-02-19T12:42:57.604Z,1.57
2019-02-19T12:49:30.423Z,2.30
2019-02-19T12:55:56.550Z,1.70
2019-02-19T13:02:37.523Z,2.43
2019-02-19T13:09:03.120Z,2.10
2019-02-19T13:15:29.789Z,2.10
2019-02-19T13:22:10.139Z,2.47
2019-02-19T13:28:34.940Z,2.37
2019-02-19T13:38:49.821Z,2.47
2019-02-19T13:45:16.856Z,2.63
2019-02-19T13:51:42.682Z,2.33
2019-02-19T13:58:19.612Z,2.90
2019-02-19T14:04:47.158Z,1.67
2019-02-19T14:11:13.272Z,1.90
2019-02-19T14:18:15.531Z,2.23
2019-02-19T14:25:14.600Z,2.37
2019-02-19T14:31:53.287Z,2.50
2019-02-19T14:42:30.640Z,2.40
2019-02-19T14:49:09.600Z,2.40
2019-02-19T14:55:52.802Z,3.13
2019-02-19T15:02:11.135Z,2.60
2019-02-19T15:09:06.465Z,2.80
2019-02-19T15:12:02.188Z,2.73
2019-02-19T15:18:54.480Z,3.40
2019-02-19T15:25:53.281Z,3.10
2019-02-19T15:32:47.739Z,8.00
2019-02-19T15:39:31.675Z,3.57
2019-02-19T15:45:37.354Z,2.97
2019-02-19T15:52:16.300Z,2.90
2019-02-19T15:58:54.969Z,3.13
2019-02-19T16:05:38.012Z,2.73
2019-02-19T16:12:25.983Z,2.60
2019-02-19T16:19:35.249Z,2.40
2019-02-19T16:26:16.258Z,2.80
2019-02-19T16:32:50.408Z,2.60
2019-02-19T16:39:47.533Z,2.80
2019-02-19T16:46:40.621Z,2.30
2019-02-19T16:53:23.220Z,3.60
2019-02-19T16:56:33.499Z,7.10
2019-02-19T17:03:32.657Z,4.20
2019-02-19T17:10:15.633Z,5.43
2019-02-19T17:17:02.667Z,2.70
2019-02-19T17:23:45.569Z,3.20
2019-02-19T17:30:38.758Z,4.50
2019-02-19T17:41:17.834Z,4.13
2019-02-19T17:48:20.961Z,4.30
2019-02-19T17:55:05.264Z,3.63
2019-02-19T18:01:54.029Z,3.53
2019-02-19T18:08:42.355Z,3.90
2019-02-19T18:15:36.118Z,3.17
2019-02-19T18:22:15.404Z,3.27
2019-02-19T18:28:42.977Z,4.37
2019-02-19T18:34:36.465Z,3.73
2019-02-19T18:41:02.572Z,3.93
2019-02-19T18:47:28.160Z,3.90
2019-02-19T18:53:57.236Z,2.70
2019-02-19T19:00:26.821Z,4.00
2019-02-19T19:07:06.047Z,3.13
2019-02-19T19:13:33.889Z,3.30
2019-02-19T19:20:02.409Z,4.10
2019-02-19T19:26:28.555Z,3.20
2019-02-19T19:32:56.149Z,3.83
2019-02-19T19:39:25.248Z,3.60
2019-02-19T19:49:13.877Z,4.20
2019-02-19T19:55:40.903Z,4.43
2019-02-19T20:02:08.441Z,3.43
2019-02-19T20:08:34.573Z,3.60
2019-02-19T20:15:15.547Z,8.17
2019-02-19T20:21:44.398Z,4.60
2019-02-19T20:28:11.911Z,5.30
2019-02-19T20:34:13.613Z,4.50
2019-02-19T20:40:37.395Z,4.63
2019-02-19T20:50:53.445Z,4.60
2019-02-19T20:57:19.298Z,4.40
2019-02-19T21:03:45.144Z,4.77
2019-02-19T21:10:28.344Z,4.60
2019-02-19T21:16:53.157Z,4.53
2019-02-19T21:23:20.995Z,4.30
2019-02-19T21:29:59.943Z,4.90
2019-02-19T21:35:59.319Z,4.63
2019-02-19T21:42:24.331Z,3.80
2019-02-19T21:52:28.030Z,4.33
2019-02-19T21:58:57.145Z,4.00
2019-02-19T22:05:39.879Z,3.90
2019-02-19T22:12:07.780Z,4.50
2019-02-19T22:18:34.805Z,5.20
2019-02-19T22:25:15.444Z,4.57
2019-02-19T22:31:43.345Z,4.90
2019-02-19T22:38:09.437Z,4.27
2019-02-19T22:44:39.966Z,4.33
2019-02-19T22:54:31.023Z,4.60
2019-02-19T23:01:32.101Z,4.17
2019-02-19T23:07:58.144Z,4.17
2019-02-19T23:14:23.797Z,4.53
2019-02-19T23:20:56.865Z,4.20
2019-02-19T23:27:35.806Z,4.33
2019-02-19T23:33:32.333Z,4.73
2019-02-19T23:39:58.155Z,4.90
2019-02-19T23:46:23.626Z,4.27
2019-02-19T23:55:58.310Z,4.03
